sensor_id;sensor_type;location;lat;lon;timestamp;P1;durP1;ratioP1;P2;durP2;ratioP2
41426;SDS011;27171;51.812;19.514;2023-03-23T00:04:02;22.20;;;16.92;;
41426;SDS011;27171;51.812;19.514;2023-03-23T00:07:03;23.48;;;17.58;;
41426;SDS011;27171;51.812;19.514;2023-03-23T00:10:04;22.35;;;17.50;;
41426;SDS011;27171;51.812;19.514;2023-03-23T00:13:06;23.90;;;17.58;;
41426;SDS011;27171;51.812;19.514;2023-03-23T00:16:07;21.48;;;16.40;;
41426;SDS011;27171;51.812;19.514;2023-03-23T00:19:10;21.75;;;15.43;;
41426;SDS011;27171;51.812;19.514;2023-03-23T00:22:13;20.38;;;16.23;;
41426;SDS011;27171;51.812;19.514;2023-03-23T00:25:15;20.42;;;16.25;;
41426;SDS011;27171;51.812;19.514;2023-03-23T00:31:19;18.52;;;15.00;;
41426;SDS011;27171;51.812;19.514;2023-03-23T00:34:21;21.45;;;16.35;;
41426;SDS011;27171;51.812;19.514;2023-03-23T00:37:22;19.40;;;16.00;;
41426;SDS011;27171;51.812;19.514;2023-03-23T00:40:24;20.00;;;15.15;;
41426;SDS011;27171;51.812;19.514;2023-03-23T00:43:27;20.08;;;15.80;;
41426;SDS011;27171;51.812;19.514;2023-03-23T00:46:29;17.08;;;14.10;;
41426;SDS011;27171;51.812;19.514;2023-03-23T00:49:30;20.45;;;16.58;;
41426;SDS011;27171;51.812;19.514;2023-03-23T00:52:31;21.35;;;15.73;;
41426;SDS011;27171;51.812;19.514;2023-03-23T01:01:35;19.63;;;14.63;;
41426;SDS011;27171;51.812;19.514;2023-03-23T01:04:40;19.70;;;15.10;;
41426;SDS011;27171;51.812;19.514;2023-03-23T01:07:41;23.27;;;16.50;;
41426;SDS011;27171;51.812;19.514;2023-03-23T01:10:42;20.52;;;15.77;;
41426;SDS011;27171;51.812;19.514;2023-03-23T01:13:45;21.45;;;16.50;;
41426;SDS011;27171;51.812;19.514;2023-03-23T01:16:46;21.00;;;16.00;;
41426;SDS011;27171;51.812;19.514;2023-03-23T01:19:47;20.20;;;15.27;;
41426;SDS011;27171;51.812;19.514;2023-03-23T01:22:48;17.90;;;13.77;;
41426;SDS011;27171;51.812;19.514;2023-03-23T01:25:50;20.05;;;15.45;;
41426;SDS011;27171;51.812;19.514;2023-03-23T01:28:51;18.85;;;16.08;;
41426;SDS011;27171;51.812;19.514;2023-03-23T01:31:52;18.45;;;14.40;;
41426;SDS011;27171;51.812;19.514;2023-03-23T01:34:54;17.80;;;12.80;;
41426;SDS011;27171;51.812;19.514;2023-03-23T01:37:55;18.65;;;14.30;;
41426;SDS011;27171;51.812;19.514;2023-03-23T01:40:56;18.75;;;14.35;;
41426;SDS011;27171;51.812;19.514;2023-03-23T01:43:59;19.08;;;14.27;;
41426;SDS011;27171;51.812;19.514;2023-03-23T01:47:06;20.48;;;15.77;;
41426;SDS011;27171;51.812;19.514;2023-03-23T01:50:10;18.42;;;14.95;;
41426;SDS011;27171;51.812;19.514;2023-03-23T01:53:11;20.00;;;16.27;;
41426;SDS011;27171;51.812;19.514;2023-03-23T01:56:13;21.42;;;16.02;;
41426;SDS011;27171;51.812;19.514;2023-03-23T01:59:16;19.90;;;16.10;;
41426;SDS011;27171;51.812;19.514;2023-03-23T02:02:23;17.63;;;14.70;;
41426;SDS011;27171;51.812;19.514;2023-03-23T02:05:30;19.63;;;15.00;;
41426;SDS011;27171;51.812;19.514;2023-03-23T02:08:42;21.40;;;16.60;;
41426;SDS011;27171;51.812;19.514;2023-03-23T02:11:45;20.90;;;15.82;;
41426;SDS011;27171;51.812;19.514;2023-03-23T02:14:47;18.30;;;14.77;;
41426;SDS011;27171;51.812;19.514;2023-03-23T02:17:55;25.05;;;16.10;;
41426;SDS011;27171;51.812;19.514;2023-03-23T02:24:45;16.55;;;13.82;;
41426;SDS011;27171;51.812;19.514;2023-03-23T02:34:58;17.63;;;14.82;;
41426;SDS011;27171;51.812;19.514;2023-03-23T02:38:09;19.55;;;14.13;;
41426;SDS011;27171;51.812;19.514;2023-03-23T02:41:16;21.30;;;15.50;;
41426;SDS011;27171;51.812;19.514;2023-03-23T02:44:22;20.52;;;16.00;;
41426;SDS011;27171;51.812;19.514;2023-03-23T02:47:26;21.45;;;16.08;;
41426;SDS011;27171;51.812;19.514;2023-03-23T02:50:29;20.73;;;15.13;;
41426;SDS011;27171;51.812;19.514;2023-03-23T02:53:33;20.52;;;16.08;;
41426;SDS011;27171;51.812;19.514;2023-03-23T02:56:36;19.73;;;15.07;;
41426;SDS011;27171;51.812;19.514;2023-03-23T02:59:45;17.67;;;14.48;;
41426;SDS011;27171;51.812;19.514;2023-03-23T03:02:47;17.60;;;14.23;;
41426;SDS011;27171;51.812;19.514;2023-03-23T03:06:00;17.63;;;12.70;;
41426;SDS011;27171;51.812;19.514;2023-03-23T03:12:41;16.50;;;13.93;;
41426;SDS011;27171;51.812;19.514;2023-03-23T03:19:18;18.80;;;13.80;;
41426;SDS011;27171;51.812;19.514;2023-03-23T03:22:25;17.58;;;13.95;;
41426;SDS011;27171;51.812;19.514;2023-03-23T03:25:28;20.38;;;13.57;;
41426;SDS011;27171;51.812;19.514;2023-03-23T03:28:31;17.48;;;13.93;;
41426;SDS011;27171;51.812;19.514;2023-03-23T03:31:38;17.25;;;13.45;;
41426;SDS011;27171;51.812;19.514;2023-03-23T03:34:41;15.95;;;13.20;;
41426;SDS011;27171;51.812;19.514;2023-03-23T03:37:42;17.75;;;12.23;;
41426;SDS011;27171;51.812;19.514;2023-03-23T03:40:44;15.00;;;11.90;;
41426;SDS011;27171;51.812;19.514;2023-03-23T03:49:47;12.40;;;9.00;;
41426;SDS011;27171;51.812;19.514;2023-03-23T03:55:49;13.45;;;9.55;;
41426;SDS011;27171;51.812;19.514;2023-03-23T03:58:51;13.23;;;10.43;;
41426;SDS011;27171;51.812;19.514;2023-03-23T04:02:07;14.60;;;10.23;;
41426;SDS011;27171;51.812;19.514;2023-03-23T04:11:11;15.35;;;10.60;;
41426;SDS011;27171;51.812;19.514;2023-03-23T04:14:14;14.32;;;10.15;;
41426;SDS011;27171;51.812;19.514;2023-03-23T04:17:18;13.18;;;10.27;;
41426;SDS011;27171;51.812;19.514;2023-03-23T04:23:24;11.50;;;9.20;;
41426;SDS011;27171;51.812;19.514;2023-03-23T04:26:27;13.82;;;10.35;;
41426;SDS011;27171;51.812;19.514;2023-03-23T04:29:34;15.85;;;10.68;;
41426;SDS011;27171;51.812;19.514;2023-03-23T04:32:55;12.40;;;9.73;;
41426;SDS011;27171;51.812;19.514;2023-03-23T04:36:00;10.40;;;8.65;;
41426;SDS011;27171;51.812;19.514;2023-03-23T04:39:12;9.93;;;8.07;;
41426;SDS011;27171;51.812;19.514;2023-03-23T04:42:14;10.10;;;8.70;;
41426;SDS011;27171;51.812;19.514;2023-03-23T04:45:29;10.75;;;8.40;;
41426;SDS011;27171;51.812;19.514;2023-03-23T04:48:33;12.63;;;8.93;;
41426;SDS011;27171;51.812;19.514;2023-03-23T04:51:42;11.55;;;9.13;;
41426;SDS011;27171;51.812;19.514;2023-03-23T04:54:53;10.98;;;8.60;;
41426;SDS011;27171;51.812;19.514;2023-03-23T04:57:55;11.48;;;8.60;;
41426;SDS011;27171;51.812;19.514;2023-03-23T05:01:10;11.48;;;7.55;;
41426;SDS011;27171;51.812;19.514;2023-03-23T05:04:20;13.70;;;8.38;;
41426;SDS011;27171;51.812;19.514;2023-03-23T05:07:32;11.15;;;8.40;;
41426;SDS011;27171;51.812;19.514;2023-03-23T05:10:34;12.07;;;7.82;;
41426;SDS011;27171;51.812;19.514;2023-03-23T05:13:41;12.10;;;9.43;;
41426;SDS011;27171;51.812;19.514;2023-03-23T05:16:43;11.00;;;8.50;;
41426;SDS011;27171;51.812;19.514;2023-03-23T05:19:44;11.55;;;8.93;;
41426;SDS011;27171;51.812;19.514;2023-03-23T05:23:05;11.25;;;9.10;;
41426;SDS011;27171;51.812;19.514;2023-03-23T05:26:09;11.90;;;8.20;;
41426;SDS011;27171;51.812;19.514;2023-03-23T05:29:11;9.60;;;7.90;;
41426;SDS011;27171;51.812;19.514;2023-03-23T05:32:22;12.07;;;7.93;;
41426;SDS011;27171;51.812;19.514;2023-03-23T05:35:23;10.65;;;8.00;;
41426;SDS011;27171;51.812;19.514;2023-03-23T05:38:26;13.27;;;7.70;;
41426;SDS011;27171;51.812;19.514;2023-03-23T05:41:28;9.80;;;7.10;;
41426;SDS011;27171;51.812;19.514;2023-03-23T05:44:30;9.55;;;7.72;;
41426;SDS011;27171;51.812;19.514;2023-03-23T05:47:34;10.95;;;7.32;;
41426;SDS011;27171;51.812;19.514;2023-03-23T05:50:40;9.90;;;7.03;;
41426;SDS011;27171;51.812;19.514;2023-03-23T05:56:44;9.48;;;5.43;;
41426;SDS011;27171;51.812;19.514;2023-03-23T05:59:57;11.02;;;6.95;;
41426;SDS011;27171;51.812;19.514;2023-03-23T06:02:58;10.82;;;6.82;;
41426;SDS011;27171;51.812;19.514;2023-03-23T06:06:10;7.93;;;6.13;;
41426;SDS011;27171;51.812;19.514;2023-03-23T06:09:22;9.60;;;6.88;;
41426;SDS011;27171;51.812;19.514;2023-03-23T06:12:43;10.80;;;7.47;;
41426;SDS011;27171;51.812;19.514;2023-03-23T06:18:54;10.00;;;6.50;;
41426;SDS011;27171;51.812;19.514;2023-03-23T06:22:02;10.23;;;6.85;;
41426;SDS011;27171;51.812;19.514;2023-03-23T06:25:17;8.70;;;6.63;;
41426;SDS011;27171;51.812;19.514;2023-03-23T06:28:18;10.10;;;7.25;;
41426;SDS011;27171;51.812;19.514;2023-03-23T06:31:23;10.52;;;6.85;;
41426;SDS011;27171;51.812;19.514;2023-03-23T06:34:25;10.98;;;7.82;;
41426;SDS011;27171;51.812;19.514;2023-03-23T06:37:40;11.18;;;7.95;;
41426;SDS011;27171;51.812;19.514;2023-03-23T06:40:48;7.50;;;6.65;;
41426;SDS011;27171;51.812;19.514;2023-03-23T06:43:51;10.25;;;7.65;;
41426;SDS011;27171;51.812;19.514;2023-03-23T06:46:58;11.35;;;8.45;;
41426;SDS011;27171;51.812;19.514;2023-03-23T06:50:02;12.68;;;8.27;;
41426;SDS011;27171;51.812;19.514;2023-03-23T06:53:05;10.85;;;8.18;;
41426;SDS011;27171;51.812;19.514;2023-03-23T06:56:06;10.65;;;8.05;;
41426;SDS011;27171;51.812;19.514;2023-03-23T06:59:09;9.50;;;8.18;;
41426;SDS011;27171;51.812;19.514;2023-03-23T07:02:10;9.63;;;7.32;;
41426;SDS011;27171;51.812;19.514;2023-03-23T07:05:12;8.45;;;7.28;;
41426;SDS011;27171;51.812;19.514;2023-03-23T07:08:14;9.90;;;7.20;;
41426;SDS011;27171;51.812;19.514;2023-03-23T07:11:21;9.80;;;7.82;;
41426;SDS011;27171;51.812;19.514;2023-03-23T07:14:22;13.23;;;8.07;;
41426;SDS011;27171;51.812;19.514;2023-03-23T07:17:23;12.55;;;8.32;;
41426;SDS011;27171;51.812;19.514;2023-03-23T07:20:38;10.00;;;6.95;;
41426;SDS011;27171;51.812;19.514;2023-03-23T07:23:40;7.32;;;6.28;;
41426;SDS011;27171;51.812;19.514;2023-03-23T07:26:45;9.98;;;7.03;;
41426;SDS011;27171;51.812;19.514;2023-03-23T07:29:46;9.65;;;6.55;;
41426;SDS011;27171;51.812;19.514;2023-03-23T07:32:55;10.25;;;7.55;;
41426;SDS011;27171;51.812;19.514;2023-03-23T07:36:00;9.07;;;7.07;;
41426;SDS011;27171;51.812;19.514;2023-03-23T07:39:03;9.10;;;6.75;;
41426;SDS011;27171;51.812;19.514;2023-03-23T07:42:05;9.05;;;7.43;;
41426;SDS011;27171;51.812;19.514;2023-03-23T07:45:16;11.10;;;6.68;;
41426;SDS011;27171;51.812;19.514;2023-03-23T07:48:17;9.63;;;6.53;;
41426;SDS011;27171;51.812;19.514;2023-03-23T07:51:20;8.40;;;6.75;;
41426;SDS011;27171;51.812;19.514;2023-03-23T07:54:24;8.95;;;6.53;;
41426;SDS011;27171;51.812;19.514;2023-03-23T07:57:39;10.05;;;6.60;;
41426;SDS011;27171;51.812;19.514;2023-03-23T08:00:40;7.40;;;5.40;;
41426;SDS011;27171;51.812;19.514;2023-03-23T08:03:44;7.28;;;5.95;;
41426;SDS011;27171;51.812;19.514;2023-03-23T08:07:08;7.38;;;4.88;;
41426;SDS011;27171;51.812;19.514;2023-03-23T08:10:35;8.57;;;4.95;;
41426;SDS011;27171;51.812;19.514;2023-03-23T08:13:49;8.02;;;5.03;;
41426;SDS011;27171;51.812;19.514;2023-03-23T08:17:03;5.28;;;4.15;;
41426;SDS011;27171;51.812;19.514;2023-03-23T08:20:16;5.55;;;4.25;;
41426;SDS011;27171;51.812;19.514;2023-03-23T08:23:32;5.97;;;4.63;;
41426;SDS011;27171;51.812;19.514;2023-03-23T08:26:36;7.50;;;4.35;;
41426;SDS011;27171;51.812;19.514;2023-03-23T08:30:00;5.40;;;4.07;;
41426;SDS011;27171;51.812;19.514;2023-03-23T08:33:21;8.18;;;3.83;;
41426;SDS011;27171;51.812;19.514;2023-03-23T08:39:54;9.20;;;4.20;;
41426;SDS011;27171;51.812;19.514;2023-03-23T08:43:25;4.65;;;2.97;;
41426;SDS011;27171;51.812;19.514;2023-03-23T08:46:50;3.88;;;3.00;;
41426;SDS011;27171;51.812;19.514;2023-03-23T08:49:51;5.50;;;2.88;;
41426;SDS011;27171;51.812;19.514;2023-03-23T08:53:06;4.97;;;2.70;;
41426;SDS011;27171;51.812;19.514;2023-03-23T08:56:27;4.85;;;2.88;;
41426;SDS011;27171;51.812;19.514;2023-03-23T08:59:45;3.83;;;2.78;;
41426;SDS011;27171;51.812;19.514;2023-03-23T09:02:52;5.40;;;3.22;;
41426;SDS011;27171;51.812;19.514;2023-03-23T09:06:00;7.00;;;3.15;;
41426;SDS011;27171;51.812;19.514;2023-03-23T09:09:17;5.22;;;2.63;;
41426;SDS011;27171;51.812;19.514;2023-03-23T09:12:18;6.32;;;3.33;;
41426;SDS011;27171;51.812;19.514;2023-03-23T09:15:19;3.65;;;2.38;;
41426;SDS011;27171;51.812;19.514;2023-03-23T09:18:21;4.13;;;2.97;;
41426;SDS011;27171;51.812;19.514;2023-03-23T09:21:25;5.20;;;2.40;;
41426;SDS011;27171;51.812;19.514;2023-03-23T09:24:27;3.75;;;1.80;;
41426;SDS011;27171;51.812;19.514;2023-03-23T09:27:28;4.43;;;1.63;;
41426;SDS011;27171;51.812;19.514;2023-03-23T09:30:30;3.20;;;1.67;;
41426;SDS011;27171;51.812;19.514;2023-03-23T09:33:33;2.97;;;1.52;;
41426;SDS011;27171;51.812;19.514;2023-03-23T09:36:34;3.20;;;1.20;;
41426;SDS011;27171;51.812;19.514;2023-03-23T09:39:36;3.28;;;1.55;;
41426;SDS011;27171;51.812;19.514;2023-03-23T09:42:53;5.45;;;1.30;;
41426;SDS011;27171;51.812;19.514;2023-03-23T09:46:10;1.88;;;1.27;;
41426;SDS011;27171;51.812;19.514;2023-03-23T09:49:50;3.28;;;1.17;;
41426;SDS011;27171;51.812;19.514;2023-03-23T09:53:34;5.78;;;1.15;;
41426;SDS011;27171;51.812;19.514;2023-03-23T09:56:35;2.00;;;1.05;;
41426;SDS011;27171;51.812;19.514;2023-03-23T10:03:30;2.83;;;0.90;;
41426;SDS011;27171;51.812;19.514;2023-03-23T10:06:16;4.90;;;1.10;;
41426;SDS011;27171;51.812;19.514;2023-03-23T10:09:18;2.90;;;1.20;;
41426;SDS011;27171;51.812;19.514;2023-03-23T10:12:42;2.85;;;1.13;;
41426;SDS011;27171;51.812;19.514;2023-03-23T10:15:44;3.25;;;1.52;;
41426;SDS011;27171;51.812;19.514;2023-03-23T10:18:49;2.78;;;1.25;;
41426;SDS011;27171;51.812;19.514;2023-03-23T10:22:10;4.03;;;1.80;;
41426;SDS011;27171;51.812;19.514;2023-03-23T10:28:21;3.30;;;1.85;;
41426;SDS011;27171;51.812;19.514;2023-03-23T10:31:49;3.83;;;1.67;;
41426;SDS011;27171;51.812;19.514;2023-03-23T10:35:17;3.22;;;1.77;;
41426;SDS011;27171;51.812;19.514;2023-03-23T10:38:31;4.97;;;2.20;;
41426;SDS011;27171;51.812;19.514;2023-03-23T10:41:36;3.43;;;1.50;;
41426;SDS011;27171;51.812;19.514;2023-03-23T10:44:38;4.20;;;1.67;;
41426;SDS011;27171;51.812;19.514;2023-03-23T10:50:30;4.35;;;2.17;;
41426;SDS011;27171;51.812;19.514;2023-03-23T10:53:35;7.32;;;2.65;;
41426;SDS011;27171;51.812;19.514;2023-03-23T10:56:40;4.80;;;1.88;;
41426;SDS011;27171;51.812;19.514;2023-03-23T10:59:43;6.03;;;2.65;;
41426;SDS011;27171;51.812;19.514;2023-03-23T11:02:45;3.95;;;2.35;;
41426;SDS011;27171;51.812;19.514;2023-03-23T11:06:02;5.00;;;2.20;;
41426;SDS011;27171;51.812;19.514;2023-03-23T11:09:10;7.43;;;3.03;;
41426;SDS011;27171;51.812;19.514;2023-03-23T11:12:16;3.55;;;1.80;;
41426;SDS011;27171;51.812;19.514;2023-03-23T11:18:24;5.28;;;2.03;;
41426;SDS011;27171;51.812;19.514;2023-03-23T11:21:34;4.63;;;2.92;;
41426;SDS011;27171;51.812;19.514;2023-03-23T11:24:42;5.88;;;3.72;;
41426;SDS011;27171;51.812;19.514;2023-03-23T11:27:45;4.82;;;3.42;;
41426;SDS011;27171;51.812;19.514;2023-03-23T11:30:47;6.65;;;3.17;;
41426;SDS011;27171;51.812;19.514;2023-03-23T11:33:52;3.30;;;1.83;;
41426;SDS011;27171;51.812;19.514;2023-03-23T11:36:58;4.43;;;2.70;;
41426;SDS011;27171;51.812;19.514;2023-03-23T11:43:09;5.43;;;3.10;;
41426;SDS011;27171;51.812;19.514;2023-03-23T11:59:37;4.85;;;2.47;;
41426;SDS011;27171;51.812;19.514;2023-03-23T12:02:44;2.70;;;1.83;;
41426;SDS011;27171;51.812;19.514;2023-03-23T12:06:10;2.80;;;1.65;;
41426;SDS011;27171;51.812;19.514;2023-03-23T12:09:20;5.88;;;3.10;;
41426;SDS011;27171;51.812;19.514;2023-03-23T12:16:22;3.60;;;2.22;;
41426;SDS011;27171;51.812;19.514;2023-03-23T12:26:08;4.10;;;2.20;;
41426;SDS011;27171;51.812;19.514;2023-03-23T12:43:26;4.95;;;2.15;;
41426;SDS011;27171;51.812;19.514;2023-03-23T12:49:45;3.10;;;2.33;;
41426;SDS011;27171;51.812;19.514;2023-03-23T12:52:53;3.47;;;1.80;;
41426;SDS011;27171;51.812;19.514;2023-03-23T13:02:48;4.63;;;1.90;;
41426;SDS011;27171;51.812;19.514;2023-03-23T13:06:08;2.65;;;1.92;;
41426;SDS011;27171;51.812;19.514;2023-03-23T13:09:20;3.03;;;1.77;;
41426;SDS011;27171;51.812;19.514;2023-03-23T13:12:24;4.50;;;2.33;;
41426;SDS011;27171;51.812;19.514;2023-03-23T13:21:58;4.53;;;2.33;;
41426;SDS011;27171;51.812;19.514;2023-03-23T13:25:08;4.38;;;2.20;;
41426;SDS011;27171;51.812;19.514;2023-03-23T13:28:17;5.80;;;3.05;;
41426;SDS011;27171;51.812;19.514;2023-03-23T13:31:22;4.90;;;1.92;;
41426;SDS011;27171;51.812;19.514;2023-03-23T13:34:34;4.57;;;1.67;;
41426;SDS011;27171;51.812;19.514;2023-03-23T13:37:40;3.53;;;1.50;;
41426;SDS011;27171;51.812;19.514;2023-03-23T13:40:45;2.70;;;1.10;;
41426;SDS011;27171;51.812;19.514;2023-03-23T13:43:47;4.97;;;1.33;;
41426;SDS011;27171;51.812;19.514;2023-03-23T13:47:05;1.98;;;1.17;;
41426;SDS011;27171;51.812;19.514;2023-03-23T13:56:47;2.55;;;1.35;;
41426;SDS011;27171;51.812;19.514;2023-03-23T13:59:57;3.25;;;1.75;;
41426;SDS011;27171;51.812;19.514;2023-03-23T14:03:11;3.05;;;1.30;;
41426;SDS011;27171;51.812;19.514;2023-03-23T14:06:15;2.65;;;1.08;;
41426;SDS011;27171;51.812;19.514;2023-03-23T14:09:36;2.80;;;1.33;;
41426;SDS011;27171;51.812;19.514;2023-03-23T14:12:40;3.20;;;1.30;;
41426;SDS011;27171;51.812;19.514;2023-03-23T14:15:42;2.10;;;1.00;;
41426;SDS011;27171;51.812;19.514;2023-03-23T14:18:53;3.38;;;1.25;;
41426;SDS011;27171;51.812;19.514;2023-03-23T14:22:00;4.45;;;1.00;;
41426;SDS011;27171;51.812;19.514;2023-03-23T14:28:17;1.98;;;0.90;;
41426;SDS011;27171;51.812;19.514;2023-03-23T14:34:25;4.03;;;0.98;;
41426;SDS011;27171;51.812;19.514;2023-03-23T14:37:29;2.30;;;0.82;;
41426;SDS011;27171;51.812;19.514;2023-03-23T14:40:30;3.25;;;1.27;;
41426;SDS011;27171;51.812;19.514;2023-03-23T14:43:32;2.90;;;1.02;;
41426;SDS011;27171;51.812;19.514;2023-03-23T14:46:35;3.35;;;0.70;;
41426;SDS011;27171;51.812;19.514;2023-03-23T14:49:42;3.13;;;0.73;;
41426;SDS011;27171;51.812;19.514;2023-03-23T14:52:43;3.70;;;1.08;;
41426;SDS011;27171;51.812;19.514;2023-03-23T14:55:49;2.28;;;0.77;;
41426;SDS011;27171;51.812;19.514;2023-03-23T14:58:52;2.72;;;0.95;;
41426;SDS011;27171;51.812;19.514;2023-03-23T15:01:53;2.58;;;0.95;;
41426;SDS011;27171;51.812;19.514;2023-03-23T15:04:58;2.65;;;1.10;;
41426;SDS011;27171;51.812;19.514;2023-03-23T15:08:15;4.07;;;0.80;;
41426;SDS011;27171;51.812;19.514;2023-03-23T15:11:30;2.85;;;1.05;;
41426;SDS011;27171;51.812;19.514;2023-03-23T15:14:48;4.63;;;1.08;;
41426;SDS011;27171;51.812;19.514;2023-03-23T15:17:52;1.98;;;0.90;;
41426;SDS011;27171;51.812;19.514;2023-03-23T15:20:53;2.90;;;1.08;;
41426;SDS011;27171;51.812;19.514;2023-03-23T15:23:54;2.55;;;0.95;;
41426;SDS011;27171;51.812;19.514;2023-03-23T15:27:23;2.58;;;1.10;;
41426;SDS011;27171;51.812;19.514;2023-03-23T15:33:24;2.15;;;1.02;;
41426;SDS011;27171;51.812;19.514;2023-03-23T15:36:26;4.18;;;0.90;;
41426;SDS011;27171;51.812;19.514;2023-03-23T15:39:33;2.63;;;1.35;;
41426;SDS011;27171;51.812;19.514;2023-03-23T15:42:35;3.35;;;1.55;;
41426;SDS011;27171;51.812;19.514;2023-03-23T15:45:36;2.25;;;1.23;;
41426;SDS011;27171;51.812;19.514;2023-03-23T15:51:58;3.33;;;1.65;;
41426;SDS011;27171;51.812;19.514;2023-03-23T15:54:59;5.47;;;1.45;;
41426;SDS011;27171;51.812;19.514;2023-03-23T15:58:00;3.92;;;1.40;;
41426;SDS011;27171;51.812;19.514;2023-03-23T16:01:15;3.03;;;1.38;;
41426;SDS011;27171;51.812;19.514;2023-03-23T16:04:22;3.72;;;2.10;;
41426;SDS011;27171;51.812;19.514;2023-03-23T16:07:24;2.42;;;1.17;;
41426;SDS011;27171;51.812;19.514;2023-03-23T16:10:25;4.93;;;1.60;;
41426;SDS011;27171;51.812;19.514;2023-03-23T16:13:28;4.07;;;1.55;;
41426;SDS011;27171;51.812;19.514;2023-03-23T16:16:39;4.05;;;1.30;;
41426;SDS011;27171;51.812;19.514;2023-03-23T16:19:46;4.30;;;1.83;;
41426;SDS011;27171;51.812;19.514;2023-03-23T16:22:47;6.55;;;2.75;;
41426;SDS011;27171;51.812;19.514;2023-03-23T16:25:49;4.03;;;1.30;;
41426;SDS011;27171;51.812;19.514;2023-03-23T16:28:50;3.33;;;1.20;;
41426;SDS011;27171;51.812;19.514;2023-03-23T16:31:52;3.38;;;1.00;;
41426;SDS011;27171;51.812;19.514;2023-03-23T16:34:53;2.08;;;0.88;;
41426;SDS011;27171;51.812;19.514;2023-03-23T16:37:54;3.15;;;1.30;;
41426;SDS011;27171;51.812;19.514;2023-03-23T16:40:56;3.30;;;1.33;;
41426;SDS011;27171;51.812;19.514;2023-03-23T16:43:57;4.03;;;1.38;;
41426;SDS011;27171;51.812;19.514;2023-03-23T16:46:58;2.35;;;1.20;;
41426;SDS011;27171;51.812;19.514;2023-03-23T16:49:59;4.55;;;1.40;;
41426;SDS011;27171;51.812;19.514;2023-03-23T16:53:01;4.00;;;1.60;;
41426;SDS011;27171;51.812;19.514;2023-03-23T16:56:03;2.60;;;1.40;;
41426;SDS011;27171;51.812;19.514;2023-03-23T16:59:04;4.47;;;2.20;;
41426;SDS011;27171;51.812;19.514;2023-03-23T17:02:05;3.22;;;1.83;;
41426;SDS011;27171;51.812;19.514;2023-03-23T17:05:12;3.20;;;1.80;;
41426;SDS011;27171;51.812;19.514;2023-03-23T17:08:14;4.45;;;2.70;;
41426;SDS011;27171;51.812;19.514;2023-03-23T17:11:15;4.63;;;2.15;;
41426;SDS011;27171;51.812;19.514;2023-03-23T17:14:16;3.58;;;2.30;;
41426;SDS011;27171;51.812;19.514;2023-03-23T17:17:18;5.97;;;2.88;;
41426;SDS011;27171;51.812;19.514;2023-03-23T17:20:19;5.95;;;3.22;;
41426;SDS011;27171;51.812;19.514;2023-03-23T17:23:20;5.93;;;3.08;;
41426;SDS011;27171;51.812;19.514;2023-03-23T17:26:22;4.90;;;2.92;;
41426;SDS011;27171;51.812;19.514;2023-03-23T17:29:23;5.65;;;2.70;;
41426;SDS011;27171;51.812;19.514;2023-03-23T17:32:33;4.66;;;3.14;;
41426;SDS011;27171;51.812;19.514;2023-03-23T17:35:34;5.82;;;2.60;;
41426;SDS011;27171;51.812;19.514;2023-03-23T17:38:35;3.83;;;2.47;;
41426;SDS011;27171;51.812;19.514;2023-03-23T17:41:36;4.90;;;2.47;;
41426;SDS011;27171;51.812;19.514;2023-03-23T17:44:37;6.00;;;2.95;;
41426;SDS011;27171;51.812;19.514;2023-03-23T17:47:38;5.95;;;3.10;;
41426;SDS011;27171;51.812;19.514;2023-03-23T17:50:40;6.68;;;3.50;;
41426;SDS011;27171;51.812;19.514;2023-03-23T17:53:41;6.88;;;3.78;;
41426;SDS011;27171;51.812;19.514;2023-03-23T17:56:42;8.25;;;4.45;;
41426;SDS011;27171;51.812;19.514;2023-03-23T17:59:44;7.63;;;4.10;;
41426;SDS011;27171;51.812;19.514;2023-03-23T18:02:46;6.97;;;4.00;;
41426;SDS011;27171;51.812;19.514;2023-03-23T18:05:48;6.35;;;4.00;;
41426;SDS011;27171;51.812;19.514;2023-03-23T18:08:49;6.45;;;3.17;;
41426;SDS011;27171;51.812;19.514;2023-03-23T18:11:50;4.38;;;2.63;;
41426;SDS011;27171;51.812;19.514;2023-03-23T18:14:55;5.60;;;2.92;;
41426;SDS011;27171;51.812;19.514;2023-03-23T18:17:58;4.68;;;2.83;;
41426;SDS011;27171;51.812;19.514;2023-03-23T18:21:01;5.00;;;2.97;;
41426;SDS011;27171;51.812;19.514;2023-03-23T18:24:04;5.20;;;2.97;;
41426;SDS011;27171;51.812;19.514;2023-03-23T18:27:05;4.50;;;2.67;;
41426;SDS011;27171;51.812;19.514;2023-03-23T18:30:07;4.22;;;2.63;;
41426;SDS011;27171;51.812;19.514;2023-03-23T18:33:09;6.30;;;2.90;;
41426;SDS011;27171;51.812;19.514;2023-03-23T18:36:10;4.70;;;3.10;;
41426;SDS011;27171;51.812;19.514;2023-03-23T18:39:11;6.07;;;2.92;;
41426;SDS011;27171;51.812;19.514;2023-03-23T18:42:12;4.95;;;3.22;;
41426;SDS011;27171;51.812;19.514;2023-03-23T18:45:13;6.20;;;4.28;;
41426;SDS011;27171;51.812;19.514;2023-03-23T18:48:14;5.50;;;3.33;;
41426;SDS011;27171;51.812;19.514;2023-03-23T18:51:16;4.95;;;3.92;;
41426;SDS011;27171;51.812;19.514;2023-03-23T18:54:17;5.53;;;3.80;;
41426;SDS011;27171;51.812;19.514;2023-03-23T18:57:18;6.95;;;4.05;;
41426;SDS011;27171;51.812;19.514;2023-03-23T19:00:20;6.57;;;4.00;;
41426;SDS011;27171;51.812;19.514;2023-03-23T19:03:21;5.75;;;4.30;;
41426;SDS011;27171;51.812;19.514;2023-03-23T19:06:23;5.53;;;3.58;;
41426;SDS011;27171;51.812;19.514;2023-03-23T19:09:26;5.93;;;4.45;;
41426;SDS011;27171;51.812;19.514;2023-03-23T19:12:28;6.70;;;4.82;;
41426;SDS011;27171;51.812;19.514;2023-03-23T19:15:30;7.25;;;4.80;;
41426;SDS011;27171;51.812;19.514;2023-03-23T19:18:31;9.18;;;4.93;;
41426;SDS011;27171;51.812;19.514;2023-03-23T19:21:32;6.13;;;4.68;;
41426;SDS011;27171;51.812;19.514;2023-03-23T19:24:34;6.28;;;4.43;;
41426;SDS011;27171;51.812;19.514;2023-03-23T19:27:35;8.82;;;4.47;;
41426;SDS011;27171;51.812;19.514;2023-03-23T19:30:41;6.55;;;4.68;;
41426;SDS011;27171;51.812;19.514;2023-03-23T19:33:43;8.23;;;5.88;;
41426;SDS011;27171;51.812;19.514;2023-03-23T19:36:44;8.38;;;6.05;;
41426;SDS011;27171;51.812;19.514;2023-03-23T19:39:46;9.30;;;5.70;;
41426;SDS011;27171;51.812;19.514;2023-03-23T19:42:47;7.32;;;5.25;;
41426;SDS011;27171;51.812;19.514;2023-03-23T19:45:49;8.32;;;5.47;;
41426;SDS011;27171;51.812;19.514;2023-03-23T19:48:50;8.65;;;5.65;;
41426;SDS011;27171;51.812;19.514;2023-03-23T19:51:52;10.40;;;5.68;;
41426;SDS011;27171;51.812;19.514;2023-03-23T19:54:53;7.63;;;5.18;;
41426;SDS011;27171;51.812;19.514;2023-03-23T19:57:54;9.07;;;6.57;;
41426;SDS011;27171;51.812;19.514;2023-03-23T20:00:55;10.63;;;5.22;;
41426;SDS011;27171;51.812;19.514;2023-03-23T20:03:56;7.15;;;4.40;;
41426;SDS011;27171;51.812;19.514;2023-03-23T20:06:58;7.28;;;4.38;;
41426;SDS011;27171;51.812;19.514;2023-03-23T20:09:59;8.20;;;3.92;;
41426;SDS011;27171;51.812;19.514;2023-03-23T20:13:00;5.55;;;3.25;;
41426;SDS011;27171;51.812;19.514;2023-03-23T20:16:03;6.18;;;3.03;;
41426;SDS011;27171;51.812;19.514;2023-03-23T20:19:04;3.72;;;2.55;;
41426;SDS011;27171;51.812;19.514;2023-03-23T20:22:05;7.32;;;3.25;;
41426;SDS011;27171;51.812;19.514;2023-03-23T20:25:06;4.40;;;2.10;;
41426;SDS011;27171;51.812;19.514;2023-03-23T20:28:08;3.63;;;2.00;;
41426;SDS011;27171;51.812;19.514;2023-03-23T20:31:13;4.45;;;2.05;;
41426;SDS011;27171;51.812;19.514;2023-03-23T20:34:16;4.95;;;2.10;;
41426;SDS011;27171;51.812;19.514;2023-03-23T20:37:17;5.13;;;2.38;;
41426;SDS011;27171;51.812;19.514;2023-03-23T20:40:18;3.67;;;2.03;;